sensor_id;sensor_type;location;lat;lon;timestamp;P1;durP1;ratioP1;P2;durP2;ratioP2
20593;SDS011;10455;48.732;10.266;2023-09-18T00:01:31;11.02;;;9.93;;
20593;SDS011;10455;48.732;10.266;2023-09-18T00:06:34;10.95;;;9.88;;
20593;SDS011;10455;48.732;10.266;2023-09-18T00:11:38;12.20;;;11.02;;
20593;SDS011;10455;48.732;10.266;2023-09-18T00:16:39;12.25;;;11.15;;
20593;SDS011;10455;48.732;10.266;2023-09-18T00:21:41;11.30;;;10.20;;
20593;SDS011;10455;48.732;10.266;2023-09-18T00:26:45;12.60;;;10.30;;
20593;SDS011;10455;48.732;10.266;2023-09-18T00:31:48;11.27;;;10.07;;
20593;SDS011;10455;48.732;10.266;2023-09-18T00:36:49;9.63;;;8.63;;
20593;SDS011;10455;48.732;10.266;2023-09-18T00:41:53;11.35;;;10.27;;
20593;SDS011;10455;48.732;10.266;2023-09-18T00:46:55;9.90;;;8.75;;
20593;SDS011;10455;48.732;10.266;2023-09-18T00:51:57;11.82;;;10.63;;
20593;SDS011;10455;48.732;10.266;2023-09-18T00:57:00;11.75;;;10.68;;
20593;SDS011;10455;48.732;10.266;2023-09-18T01:02:03;11.75;;;9.30;;
20593;SDS011;10455;48.732;10.266;2023-09-18T01:07:05;11.73;;;10.65;;
20593;SDS011;10455;48.732;10.266;2023-09-18T01:12:11;12.05;;;11.05;;
20593;SDS011;10455;48.732;10.266;2023-09-18T01:17:19;13.88;;;12.57;;
20593;SDS011;10455;48.732;10.266;2023-09-18T01:22:21;14.45;;;13.10;;
20593;SDS011;10455;48.732;10.266;2023-09-18T01:27:25;13.20;;;11.98;;
20593;SDS011;10455;48.732;10.266;2023-09-18T01:32:27;14.02;;;12.63;;
20593;SDS011;10455;48.732;10.266;2023-09-18T01:37:32;15.45;;;13.90;;
20593;SDS011;10455;48.732;10.266;2023-09-18T01:42:37;14.85;;;13.30;;
20593;SDS011;10455;48.732;10.266;2023-09-18T01:47:41;15.52;;;13.93;;
20593;SDS011;10455;48.732;10.266;2023-09-18T01:52:44;16.88;;;14.82;;
20593;SDS011;10455;48.732;10.266;2023-09-18T01:57:47;12.73;;;11.57;;
20593;SDS011;10455;48.732;10.266;2023-09-18T02:02:49;16.75;;;14.60;;
20593;SDS011;10455;48.732;10.266;2023-09-18T02:07:51;13.80;;;12.50;;
20593;SDS011;10455;48.732;10.266;2023-09-18T02:12:54;12.45;;;11.35;;
20593;SDS011;10455;48.732;10.266;2023-09-18T02:17:55;9.45;;;8.55;;
20593;SDS011;10455;48.732;10.266;2023-09-18T02:22:57;11.55;;;10.50;;
20593;SDS011;10455;48.732;10.266;2023-09-18T02:28:01;15.20;;;13.77;;
20593;SDS011;10455;48.732;10.266;2023-09-18T02:33:03;14.32;;;12.82;;
20593;SDS011;10455;48.732;10.266;2023-09-18T02:38:05;10.52;;;9.57;;
20593;SDS011;10455;48.732;10.266;2023-09-18T02:43:08;9.02;;;8.23;;
20593;SDS011;10455;48.732;10.266;2023-09-18T02:48:10;9.48;;;8.57;;
20593;SDS011;10455;48.732;10.266;2023-09-18T02:53:17;10.95;;;10.02;;
20593;SDS011;10455;48.732;10.266;2023-09-18T02:58:21;14.45;;;12.88;;
20593;SDS011;10455;48.732;10.266;2023-09-18T03:03:26;14.48;;;13.07;;
20593;SDS011;10455;48.732;10.266;2023-09-18T03:08:27;13.68;;;12.43;;
20593;SDS011;10455;48.732;10.266;2023-09-18T03:13:31;11.77;;;10.57;;
20593;SDS011;10455;48.732;10.266;2023-09-18T03:18:33;15.23;;;13.82;;
20593;SDS011;10455;48.732;10.266;2023-09-18T03:23:35;13.60;;;12.30;;
20593;SDS011;10455;48.732;10.266;2023-09-18T03:28:38;11.73;;;10.60;;
20593;SDS011;10455;48.732;10.266;2023-09-18T03:33:40;15.48;;;14.05;;
20593;SDS011;10455;48.732;10.266;2023-09-18T03:38:41;15.43;;;13.93;;
20593;SDS011;10455;48.732;10.266;2023-09-18T03:43:45;15.88;;;14.25;;
20593;SDS011;10455;48.732;10.266;2023-09-18T03:48:46;17.80;;;15.90;;
20593;SDS011;10455;48.732;10.266;2023-09-18T03:53:48;18.30;;;16.40;;
20593;SDS011;10455;48.732;10.266;2023-09-18T03:58:52;15.95;;;14.40;;
20593;SDS011;10455;48.732;10.266;2023-09-18T04:03:54;18.90;;;17.17;;
20593;SDS011;10455;48.732;10.266;2023-09-18T04:08:56;13.40;;;11.68;;
20593;SDS011;10455;48.732;10.266;2023-09-18T04:13:59;14.90;;;13.40;;
20593;SDS011;10455;48.732;10.266;2023-09-18T04:19:01;15.75;;;14.25;;
20593;SDS011;10455;48.732;10.266;2023-09-18T04:24:04;18.83;;;16.83;;
20593;SDS011;10455;48.732;10.266;2023-09-18T04:29:08;25.55;;;22.38;;
20593;SDS011;10455;48.732;10.266;2023-09-18T04:34:10;24.13;;;21.90;;
20593;SDS011;10455;48.732;10.266;2023-09-18T04:39:12;23.08;;;21.00;;
20593;SDS011;10455;48.732;10.266;2023-09-18T04:44:16;31.90;;;28.75;;
20593;SDS011;10455;48.732;10.266;2023-09-18T04:49:18;20.80;;;18.88;;
20593;SDS011;10455;48.732;10.266;2023-09-18T04:54:20;22.15;;;19.92;;
20593;SDS011;10455;48.732;10.266;2023-09-18T04:59:23;27.27;;;24.63;;
20593;SDS011;10455;48.732;10.266;2023-09-18T05:04:25;18.65;;;16.88;;
20593;SDS011;10455;48.732;10.266;2023-09-18T05:09:27;17.15;;;15.35;;
20593;SDS011;10455;48.732;10.266;2023-09-18T05:14:30;17.38;;;15.77;;
20593;SDS011;10455;48.732;10.266;2023-09-18T05:19:32;16.98;;;14.75;;
20593;SDS011;10455;48.732;10.266;2023-09-18T05:24:34;21.73;;;19.42;;
20593;SDS011;10455;48.732;10.266;2023-09-18T05:29:37;14.05;;;12.80;;
20593;SDS011;10455;48.732;10.266;2023-09-18T05:34:39;13.95;;;12.60;;
20593;SDS011;10455;48.732;10.266;2023-09-18T05:39:40;8.98;;;7.82;;
20593;SDS011;10455;48.732;10.266;2023-09-18T05:44:44;8.73;;;7.93;;
20593;SDS011;10455;48.732;10.266;2023-09-18T05:49:46;10.50;;;9.40;;
20593;SDS011;10455;48.732;10.266;2023-09-18T05:54:48;9.77;;;8.82;;
20593;SDS011;10455;48.732;10.266;2023-09-18T05:59:51;9.30;;;8.32;;
20593;SDS011;10455;48.732;10.266;2023-09-18T06:04:56;7.72;;;6.78;;
20593;SDS011;10455;48.732;10.266;2023-09-18T06:10:00;6.75;;;5.97;;
20593;SDS011;10455;48.732;10.266;2023-09-18T06:15:04;6.10;;;5.45;;
20593;SDS011;10455;48.732;10.266;2023-09-18T06:20:08;5.55;;;5.05;;
20593;SDS011;10455;48.732;10.266;2023-09-18T06:25:12;7.68;;;4.80;;
20593;SDS011;10455;48.732;10.266;2023-09-18T06:30:16;6.15;;;4.22;;
20593;SDS011;10455;48.732;10.266;2023-09-18T06:35:18;6.22;;;5.30;;
20593;SDS011;10455;48.732;10.266;2023-09-18T06:40:20;5.18;;;3.97;;
20593;SDS011;10455;48.732;10.266;2023-09-18T06:45:23;4.22;;;3.25;;
20593;SDS011;10455;48.732;10.266;2023-09-18T06:50:25;4.30;;;3.25;;
20593;SDS011;10455;48.732;10.266;2023-09-18T06:55:27;3.50;;;2.88;;
20593;SDS011;10455;48.732;10.266;2023-09-18T07:00:30;5.35;;;3.10;;
20593;SDS011;10455;48.732;10.266;2023-09-18T07:05:32;5.30;;;3.30;;
20593;SDS011;10455;48.732;10.266;2023-09-18T07:10:34;2.90;;;2.58;;
20593;SDS011;10455;48.732;10.266;2023-09-18T07:15:38;3.38;;;2.60;;
20593;SDS011;10455;48.732;10.266;2023-09-18T07:20:40;4.15;;;2.35;;
20593;SDS011;10455;48.732;10.266;2023-09-18T07:25:42;3.50;;;1.95;;
20593;SDS011;10455;48.732;10.266;2023-09-18T07:30:45;3.42;;;2.15;;
20593;SDS011;10455;48.732;10.266;2023-09-18T07:35:48;4.47;;;2.13;;
20593;SDS011;10455;48.732;10.266;2023-09-18T07:40:51;3.22;;;2.20;;
20593;SDS011;10455;48.732;10.266;2023-09-18T07:45:55;4.78;;;2.20;;
20593;SDS011;10455;48.732;10.266;2023-09-18T07:50:58;3.88;;;2.08;;
20593;SDS011;10455;48.732;10.266;2023-09-18T07:56:00;4.20;;;2.13;;
20593;SDS011;10455;48.732;10.266;2023-09-18T08:01:05;4.55;;;2.38;;
20593;SDS011;10455;48.732;10.266;2023-09-18T08:06:09;3.80;;;1.95;;
20593;SDS011;10455;48.732;10.266;2023-09-18T08:11:11;5.65;;;1.90;;
20593;SDS011;10455;48.732;10.266;2023-09-18T08:16:16;6.10;;;2.45;;
20593;SDS011;10455;48.732;10.266;2023-09-18T08:21:18;5.63;;;1.73;;
20593;SDS011;10455;48.732;10.266;2023-09-18T08:26:20;4.75;;;2.55;;
20593;SDS011;10455;48.732;10.266;2023-09-18T08:31:23;5.25;;;1.88;;
20593;SDS011;10455;48.732;10.266;2023-09-18T08:36:27;4.30;;;1.85;;
20593;SDS011;10455;48.732;10.266;2023-09-18T08:41:31;4.85;;;2.47;;
20593;SDS011;10455;48.732;10.266;2023-09-18T08:46:35;5.25;;;3.22;;
20593;SDS011;10455;48.732;10.266;2023-09-18T08:51:38;4.47;;;3.42;;
20593;SDS011;10455;48.732;10.266;2023-09-18T08:56:40;5.93;;;3.92;;
20593;SDS011;10455;48.732;10.266;2023-09-18T09:01:43;6.88;;;4.03;;
20593;SDS011;10455;48.732;10.266;2023-09-18T09:06:45;4.20;;;3.42;;
20593;SDS011;10455;48.732;10.266;2023-09-18T09:11:48;2.85;;;2.60;;
20593;SDS011;10455;48.732;10.266;2023-09-18T09:16:52;4.30;;;2.65;;
20593;SDS011;10455;48.732;10.266;2023-09-18T09:21:55;4.82;;;3.03;;
20593;SDS011;10455;48.732;10.266;2023-09-18T09:26:58;5.80;;;2.70;;
20593;SDS011;10455;48.732;10.266;2023-09-18T09:32:13;6.35;;;2.75;;
20593;SDS011;10455;48.732;10.266;2023-09-18T09:37:16;4.78;;;2.65;;
20593;SDS011;10455;48.732;10.266;2023-09-18T09:42:18;4.15;;;3.20;;
20593;SDS011;10455;48.732;10.266;2023-09-18T09:47:27;6.10;;;2.60;;
20593;SDS011;10455;48.732;10.266;2023-09-18T09:52:30;4.30;;;1.83;;
20593;SDS011;10455;48.732;10.266;2023-09-18T09:57:38;3.90;;;1.73;;
20593;SDS011;10455;48.732;10.266;2023-09-18T10:02:50;5.45;;;1.70;;
20593;SDS011;10455;48.732;10.266;2023-09-18T10:07:52;3.38;;;1.70;;
20593;SDS011;10455;48.732;10.266;2023-09-18T10:12:55;5.07;;;2.15;;
20593;SDS011;10455;48.732;10.266;2023-09-18T10:18:02;1.60;;;1.30;;
20593;SDS011;10455;48.732;10.266;2023-09-18T10:23:09;2.50;;;1.42;;
20593;SDS011;10455;48.732;10.266;2023-09-18T10:28:21;1.80;;;1.30;;
20593;SDS011;10455;48.732;10.266;2023-09-18T10:33:27;3.47;;;1.45;;
20593;SDS011;10455;48.732;10.266;2023-09-18T10:38:30;2.92;;;1.55;;
20593;SDS011;10455;48.732;10.266;2023-09-18T10:43:33;2.75;;;2.15;;
20593;SDS011;10455;48.732;10.266;2023-09-18T10:48:36;4.88;;;2.10;;
20593;SDS011;10455;48.732;10.266;2023-09-18T10:53:39;3.35;;;1.50;;
20593;SDS011;10455;48.732;10.266;2023-09-18T10:58:40;3.15;;;1.27;;
20593;SDS011;10455;48.732;10.266;2023-09-18T11:03:44;2.65;;;1.40;;
20593;SDS011;10455;48.732;10.266;2023-09-18T11:08:48;1.45;;;1.00;;
20593;SDS011;10455;48.732;10.266;2023-09-18T11:13:53;1.65;;;1.15;;
20593;SDS011;10455;48.732;10.266;2023-09-18T11:19:07;3.10;;;1.48;;
20593;SDS011;10455;48.732;10.266;2023-09-18T11:24:15;2.28;;;1.40;;
20593;SDS011;10455;48.732;10.266;2023-09-18T11:29:20;2.03;;;1.13;;
20593;SDS011;10455;48.732;10.266;2023-09-18T11:34:25;3.13;;;1.50;;
20593;SDS011;10455;48.732;10.266;2023-09-18T11:39:34;3.08;;;1.35;;
20593;SDS011;10455;48.732;10.266;2023-09-18T11:44:37;3.65;;;1.40;;
20593;SDS011;10455;48.732;10.266;2023-09-18T11:49:48;2.92;;;1.48;;
20593;SDS011;10455;48.732;10.266;2023-09-18T11:54:55;5.97;;;1.70;;
20593;SDS011;10455;48.732;10.266;2023-09-18T11:59:58;3.95;;;1.88;;
20593;SDS011;10455;48.732;10.266;2023-09-18T12:05:14;4.63;;;2.47;;
20593;SDS011;10455;48.732;10.266;2023-09-18T12:10:16;4.65;;;2.97;;
20593;SDS011;10455;48.732;10.266;2023-09-18T12:15:20;6.45;;;2.40;;
20593;SDS011;10455;48.732;10.266;2023-09-18T12:20:25;3.08;;;1.65;;
20593;SDS011;10455;48.732;10.266;2023-09-18T12:25:27;0.35;;;0.35;;
20593;SDS011;10455;48.732;10.266;2023-09-18T12:30:29;3.22;;;1.55;;
20593;SDS011;10455;48.732;10.266;2023-09-18T12:35:33;0.10;;;0.10;;
20593;SDS011;10455;48.732;10.266;2023-09-18T12:40:36;0.10;;;0.10;;
20593;SDS011;10455;48.732;10.266;2023-09-18T12:45:37;0.10;;;0.10;;
20593;SDS011;10455;48.732;10.266;2023-09-18T12:50:41;0.10;;;0.10;;
20593;SDS011;10455;48.732;10.266;2023-09-18T12:55:43;0.10;;;0.10;;
20593;SDS011;10455;48.732;10.266;2023-09-18T13:00:46;0.10;;;0.10;;
20593;SDS011;10455;48.732;10.266;2023-09-18T13:05:51;0.10;;;0.10;;
20593;SDS011;10455;48.732;10.266;2023-09-18T13:10:54;0.10;;;0.10;;
20593;SDS011;10455;48.732;10.266;2023-09-18T13:15:59;0.10;;;0.10;;
20593;SDS011;10455;48.732;10.266;2023-09-18T13:21:10;0.10;;;0.10;;
20593;SDS011;10455;48.732;10.266;2023-09-18T13:26:12;0.30;;;0.30;;
20593;SDS011;10455;48.732;10.266;2023-09-18T13:31:14;0.10;;;0.10;;
20593;SDS011;10455;48.732;10.266;2023-09-18T13:36:19;0.10;;;0.10;;
20593;SDS011;10455;48.732;10.266;2023-09-18T13:41:21;0.17;;;0.17;;
20593;SDS011;10455;48.732;10.266;2023-09-18T13:46:23;0.10;;;0.10;;
20593;SDS011;10455;48.732;10.266;2023-09-18T13:51:26;0.20;;;0.20;;
20593;SDS011;10455;48.732;10.266;2023-09-18T13:56:28;0.10;;;0.10;;
20593;SDS011;10455;48.732;10.266;2023-09-18T14:01:31;0.10;;;0.10;;
20593;SDS011;10455;48.732;10.266;2023-09-18T14:06:34;0.10;;;0.10;;
20593;SDS011;10455;48.732;10.266;2023-09-18T14:11:36;0.10;;;0.10;;
20593;SDS011;10455;48.732;10.266;2023-09-18T14:16:38;0.10;;;0.10;;
20593;SDS011;10455;48.732;10.266;2023-09-18T14:21:41;0.10;;;0.10;;
20593;SDS011;10455;48.732;10.266;2023-09-18T14:26:43;0.30;;;0.30;;
20593;SDS011;10455;48.732;10.266;2023-09-18T14:31:46;0.10;;;0.10;;
20593;SDS011;10455;48.732;10.266;2023-09-18T14:36:49;3.65;;;1.55;;
20593;SDS011;10455;48.732;10.266;2023-09-18T14:41:51;0.10;;;0.10;;
20593;SDS011;10455;48.732;10.266;2023-09-18T14:46:53;0.10;;;0.10;;
20593;SDS011;10455;48.732;10.266;2023-09-18T14:51:56;0.10;;;0.10;;
20593;SDS011;10455;48.732;10.266;2023-09-18T14:56:58;0.10;;;0.10;;
20593;SDS011;10455;48.732;10.266;2023-09-18T15:02:01;0.10;;;0.10;;
20593;SDS011;10455;48.732;10.266;2023-09-18T15:07:05;0.13;;;0.13;;
20593;SDS011;10455;48.732;10.266;2023-09-18T15:12:07;0.20;;;0.20;;
20593;SDS011;10455;48.732;10.266;2023-09-18T15:17:11;0.30;;;0.30;;
20593;SDS011;10455;48.732;10.266;2023-09-18T15:22:14;0.30;;;0.30;;
20593;SDS011;10455;48.732;10.266;2023-09-18T15:27:16;0.40;;;0.40;;
20593;SDS011;10455;48.732;10.266;2023-09-18T15:32:18;0.30;;;0.30;;
20593;SDS011;10455;48.732;10.266;2023-09-18T15:37:22;0.40;;;0.40;;
20593;SDS011;10455;48.732;10.266;2023-09-18T15:42:25;0.30;;;0.30;;
20593;SDS011;10455;48.732;10.266;2023-09-18T15:47:26;0.40;;;0.40;;
20593;SDS011;10455;48.732;10.266;2023-09-18T15:52:30;0.40;;;0.40;;
20593;SDS011;10455;48.732;10.266;2023-09-18T15:57:32;0.40;;;0.40;;
20593;SDS011;10455;48.732;10.266;2023-09-18T16:02:35;0.40;;;0.40;;
20593;SDS011;10455;48.732;10.266;2023-09-18T16:07:40;0.40;;;0.40;;
20593;SDS011;10455;48.732;10.266;2023-09-18T16:12:41;0.47;;;0.47;;
20593;SDS011;10455;48.732;10.266;2023-09-18T16:17:44;0.40;;;0.40;;
20593;SDS011;10455;48.732;10.266;2023-09-18T16:22:47;0.40;;;0.40;;
20593;SDS011;10455;48.732;10.266;2023-09-18T16:27:49;0.40;;;0.40;;
20593;SDS011;10455;48.732;10.266;2023-09-18T16:32:53;0.40;;;0.40;;
20593;SDS011;10455;48.732;10.266;2023-09-18T16:37:57;0.40;;;0.40;;
20593;SDS011;10455;48.732;10.266;2023-09-18T16:42:59;0.47;;;0.47;;
20593;SDS011;10455;48.732;10.266;2023-09-18T16:48:01;0.40;;;0.40;;
20593;SDS011;10455;48.732;10.266;2023-09-18T16:53:06;0.40;;;0.40;;
20593;SDS011;10455;48.732;10.266;2023-09-18T16:58:08;0.50;;;0.50;;
20593;SDS011;10455;48.732;10.266;2023-09-18T17:03:10;0.50;;;0.50;;
20593;SDS011;10455;48.732;10.266;2023-09-18T17:08:13;2.25;;;2.15;;
20593;SDS011;10455;48.732;10.266;2023-09-18T17:13:15;1.55;;;1.55;;
20593;SDS011;10455;48.732;10.266;2023-09-18T17:18:17;0.40;;;0.40;;
20593;SDS011;10455;48.732;10.266;2023-09-18T17:23:20;0.50;;;0.50;;
20593;SDS011;10455;48.732;10.266;2023-09-18T17:28:23;0.50;;;0.50;;
20593;SDS011;10455;48.732;10.266;2023-09-18T17:33:25;0.50;;;0.50;;
20593;SDS011;10455;48.732;10.266;2023-09-18T17:38:28;0.50;;;0.50;;
20593;SDS011;10455;48.732;10.266;2023-09-18T17:43:30;0.43;;;0.43;;
20593;SDS011;10455;48.732;10.266;2023-09-18T17:48:32;0.40;;;0.40;;
20593;SDS011;10455;48.732;10.266;2023-09-18T17:53:35;0.50;;;0.50;;
20593;SDS011;10455;48.732;10.266;2023-09-18T17:58:37;0.47;;;0.47;;
20593;SDS011;10455;48.732;10.266;2023-09-18T18:03:39;0.50;;;0.50;;
20593;SDS011;10455;48.732;10.266;2023-09-18T18:08:44;0.50;;;0.50;;
20593;SDS011;10455;48.732;10.266;2023-09-18T18:13:46;0.50;;;0.50;;
20593;SDS011;10455;48.732;10.266;2023-09-18T18:18:48;0.40;;;0.40;;
20593;SDS011;10455;48.732;10.266;2023-09-18T18:23:51;0.50;;;0.50;;
20593;SDS011;10455;48.732;10.266;2023-09-18T18:28:53;0.65;;;0.65;;
20593;SDS011;10455;48.732;10.266;2023-09-18T18:33:57;0.40;;;0.40;;
20593;SDS011;10455;48.732;10.266;2023-09-18T18:39:01;0.43;;;0.43;;
20593;SDS011;10455;48.732;10.266;2023-09-18T18:44:05;0.50;;;0.50;;
20593;SDS011;10455;48.732;10.266;2023-09-18T18:49:07;0.40;;;0.40;;
20593;SDS011;10455;48.732;10.266;2023-09-18T18:54:10;0.50;;;0.50;;
20593;SDS011;10455;48.732;10.266;2023-09-18T18:59:12;0.63;;;0.63;;
20593;SDS011;10455;48.732;10.266;2023-09-18T19:04:14;0.60;;;0.60;;
20593;SDS011;10455;48.732;10.266;2023-09-18T19:09:18;0.50;;;0.50;;
20593;SDS011;10455;48.732;10.266;2023-09-18T19:14:20;0.60;;;0.60;;
20593;SDS011;10455;48.732;10.266;2023-09-18T19:19:22;0.60;;;0.60;;
20593;SDS011;10455;48.732;10.266;2023-09-18T19:24:25;0.70;;;0.70;;
20593;SDS011;10455;48.732;10.266;2023-09-18T19:29:27;0.60;;;0.60;;
20593;SDS011;10455;48.732;10.266;2023-09-18T19:34:32;6.18;;;5.80;;
20593;SDS011;10455;48.732;10.266;2023-09-18T19:39:35;0.63;;;0.63;;
20593;SDS011;10455;48.732;10.266;2023-09-18T19:44:39;0.60;;;0.60;;
20593;SDS011;10455;48.732;10.266;2023-09-18T19:49:40;0.70;;;0.70;;
20593;SDS011;10455;48.732;10.266;2023-09-18T19:54:44;0.70;;;0.70;;
20593;SDS011;10455;48.732;10.266;2023-09-18T19:59:46;0.70;;;0.70;;
20593;SDS011;10455;48.732;10.266;2023-09-18T20:04:49;0.70;;;0.70;;
20593;SDS011;10455;48.732;10.266;2023-09-18T20:09:52;0.70;;;0.70;;
20593;SDS011;10455;48.732;10.266;2023-09-18T20:14:54;0.80;;;0.80;;
20593;SDS011;10455;48.732;10.266;2023-09-18T20:19:56;0.70;;;0.70;;
20593;SDS011;10455;48.732;10.266;2023-09-18T20:24:59;0.80;;;0.80;;
20593;SDS011;10455;48.732;10.266;2023-09-18T20:30:01;0.85;;;0.85;;
20593;SDS011;10455;48.732;10.266;2023-09-18T20:35:05;0.80;;;0.80;;
20593;SDS011;10455;48.732;10.266;2023-09-18T20:40:09;0.70;;;0.70;;
20593;SDS011;10455;48.732;10.266;2023-09-18T20:45:11;0.70;;;0.70;;
20593;SDS011;10455;48.732;10.266;2023-09-18T20:50:14;0.70;;;0.70;;
20593;SDS011;10455;48.732;10.266;2023-09-18T20:55:17;0.68;;;0.68;;
20593;SDS011;10455;48.732;10.266;2023-09-18T21:00:19;0.70;;;0.70;;
20593;SDS011;10455;48.732;10.266;2023-09-18T21:05:21;0.70;;;0.70;;
20593;SDS011;10455;48.732;10.266;2023-09-18T21:10:26;0.70;;;0.70;;
20593;SDS011;10455;48.732;10.266;2023-09-18T21:15:28;0.70;;;0.70;;
20593;SDS011;10455;48.732;10.266;2023-09-18T21:20:30;0.60;;;0.60;;
20593;SDS011;10455;48.732;10.266;2023-09-18T21:25:33;0.80;;;0.80;;
20593;SDS011;10455;48.732;10.266;2023-09-18T21:30:35;0.60;;;0.60;;
20593;SDS011;10455;48.732;10.266;2023-09-18T21:35:37;1.13;;;1.13;;
20593;SDS011;10455;48.732;10.266;2023-09-18T21:40:41;0.50;;;0.50;;
20593;SDS011;10455;48.732;10.266;2023-09-18T21:45:43;0.50;;;0.50;;
20593;SDS011;10455;48.732;10.266;2023-09-18T21:50:45;0.43;;;0.43;;
20593;SDS011;10455;48.732;10.266;2023-09-18T21:55:48;0.50;;;0.50;;
20593;SDS011;10455;48.732;10.266;2023-09-18T22:00:54;0.40;;;0.40;;
20593;SDS011;10455;48.732;10.266;2023-09-18T22:05:56;0.40;;;0.40;;
20593;SDS011;10455;48.732;10.266;2023-09-18T22:11:00;0.40;;;0.40;;
20593;SDS011;10455;48.732;10.266;2023-09-18T22:16:04;0.50;;;0.50;;
20593;SDS011;10455;48.732;10.266;2023-09-18T22:21:06;0.40;;;0.40;;
20593;SDS011;10455;48.732;10.266;2023-09-18T22:26:10;1.60;;;1.60;;
20593;SDS011;10455;48.732;10.266;2023-09-18T22:31:12;1.17;;;0.82;;
20593;SDS011;10455;48.732;10.266;2023-09-18T22:36:18;0.50;;;0.50;;
20593;SDS011;10455;48.732;10.266;2023-09-18T22:57:47;0.43;;;0.43;;
20593;SDS011;10455;48.732;10.266;2023-09-18T23:02:51;0.50;;;0.50;;
20593;SDS011;10455;48.732;10.266;2023-09-18T23:07:54;0.50;;;0.50;;
20593;SDS011;10455;48.732;10.266;2023-09-18T23:13:01;0.40;;;0.40;;
20593;SDS011;10455;48.732;10.266;2023-09-18T23:18:04;0.40;;;0.40;;
20593;SDS011;10455;48.732;10.266;2023-09-18T23:23:06;0.50;;;0.50;;
20593;SDS011;10455;48.732;10.266;2023-09-18T23:28:10;0.40;;;0.40;;
20593;SDS011;10455;48.732;10.266;2023-09-18T23:33:12;0.43;;;0.43;;
20593;SDS011;10455;48.732;10.266;2023-09-18T23:38:14;0.40;;;0.40;;
20593;SDS011;10455;48.732;10.266;2023-09-18T23:43:20;0.43;;;0.43;;
20593;SDS011;10455;48.732;10.266;2023-09-18T23:48:24;0.40;;;0.40;;
20593;SDS011;10455;48.732;10.266;2023-09-18T23:53:26;0.30;;;0.30;;
20593;SDS011;10455;48.732;10.266;2023-09-18T23:58:30;0.40;;;0.40;;
